sensor_id;sensor_type;location;lat;lon;timestamp;pressure;altitude;pressure_sealevel;temperature;humidity
19676;BME280;39539;52.202;9.876;2023-02-04T00:00:53;101882.59;;;4.16;100.00
19676;BME280;39539;52.202;9.876;2023-02-04T00:03:19;101902.69;;;4.17;100.00
19676;BME280;39539;52.202;9.876;2023-02-04T00:05:44;101900.44;;;4.02;100.00
19676;BME280;39539;52.202;9.876;2023-02-04T00:08:09;101911.34;;;4.08;100.00
19676;BME280;39539;52.202;9.876;2023-02-04T00:10:35;101900.66;;;3.90;100.00
19676;BME280;39539;52.202;9.876;2023-02-04T00:13:01;101915.50;;;4.00;100.00
19676;BME280;39539;52.202;9.876;2023-02-04T00:15:27;101892.59;;;3.81;100.00
19676;BME280;39539;52.202;9.876;2023-02-04T00:17:52;101923.09;;;3.94;100.00
19676;BME280;39539;52.202;9.876;2023-02-04T00:20:18;101902.53;;;3.78;100.00
19676;BME280;39539;52.202;9.876;2023-02-04T00:22:44;101912.22;;;3.77;100.00
19676;BME280;39539;52.202;9.876;2023-02-04T00:25:09;101940.25;;;3.88;100.00
19676;BME280;39539;52.202;9.876;2023-02-04T00:27:34;101946.72;;;3.84;100.00
19676;BME280;39539;52.202;9.876;2023-02-04T00:30:00;101940.41;;;3.66;100.00
19676;BME280;39539;52.202;9.876;2023-02-04T00:32:25;101947.31;;;3.67;100.00
19676;BME280;39539;52.202;9.876;2023-02-04T00:34:50;101946.88;;;3.62;100.00
19676;BME280;39539;52.202;9.876;2023-02-04T00:37:17;101951.44;;;3.59;100.00
19676;BME280;39539;52.202;9.876;2023-02-04T00:39:43;101956.44;;;3.63;100.00
19676;BME280;39539;52.202;9.876;2023-02-04T00:42:08;101964.06;;;3.66;100.00
19676;BME280;39539;52.202;9.876;2023-02-04T00:44:34;101961.00;;;3.60;100.00
19676;BME280;39539;52.202;9.876;2023-02-04T00:47:00;101954.38;;;3.45;100.00
19676;BME280;39539;52.202;9.876;2023-02-04T00:49:26;101965.06;;;3.53;100.00
19676;BME280;39539;52.202;9.876;2023-02-04T00:51:51;101974.31;;;3.48;100.00
19676;BME280;39539;52.202;9.876;2023-02-04T00:54:16;101986.97;;;3.54;100.00
19676;BME280;39539;52.202;9.876;2023-02-04T00:56:42;101997.38;;;3.65;100.00
19676;BME280;39539;52.202;9.876;2023-02-04T00:59:08;102013.25;;;3.75;100.00
19676;BME280;39539;52.202;9.876;2023-02-04T01:01:35;102017.06;;;3.71;100.00
19676;BME280;39539;52.202;9.876;2023-02-04T01:04:01;102038.19;;;3.80;100.00
19676;BME280;39539;52.202;9.876;2023-02-04T01:06:26;102036.84;;;3.86;100.00
19676;BME280;39539;52.202;9.876;2023-02-04T01:08:52;102036.47;;;3.91;100.00
19676;BME280;39539;52.202;9.876;2023-02-04T01:11:18;102044.09;;;3.94;100.00
19676;BME280;39539;52.202;9.876;2023-02-04T01:13:44;102040.75;;;3.92;100.00
19676;BME280;39539;52.202;9.876;2023-02-04T01:16:09;102053.53;;;3.96;100.00
19676;BME280;39539;52.202;9.876;2023-02-04T01:18:35;102067.81;;;4.03;100.00
19676;BME280;39539;52.202;9.876;2023-02-04T01:21:01;102070.19;;;4.07;100.00
19676;BME280;39539;52.202;9.876;2023-02-04T01:23:26;102064.94;;;4.07;100.00
19676;BME280;39539;52.202;9.876;2023-02-04T01:25:51;102077.00;;;4.09;100.00
19676;BME280;39539;52.202;9.876;2023-02-04T01:28:17;102080.34;;;4.11;100.00
19676;BME280;39539;52.202;9.876;2023-02-04T01:30:42;102080.44;;;4.10;100.00
19676;BME280;39539;52.202;9.876;2023-02-04T01:33:07;102085.47;;;4.13;100.00
19676;BME280;39539;52.202;9.876;2023-02-04T01:35:33;102088.59;;;4.07;100.00
19676;BME280;39539;52.202;9.876;2023-02-04T01:37:58;102073.72;;;3.96;100.00
19676;BME280;39539;52.202;9.876;2023-02-04T01:40:23;102098.56;;;4.03;100.00
19676;BME280;39539;52.202;9.876;2023-02-04T01:42:49;102110.75;;;4.04;100.00
19676;BME280;39539;52.202;9.876;2023-02-04T01:45:15;102091.25;;;3.86;100.00
19676;BME280;39539;52.202;9.876;2023-02-04T01:47:40;102104.72;;;3.92;100.00
19676;BME280;39539;52.202;9.876;2023-02-04T01:50:07;102131.09;;;4.02;100.00
19676;BME280;39539;52.202;9.876;2023-02-04T01:52:35;102131.09;;;4.02;100.00
19676;BME280;39539;52.202;9.876;2023-02-04T01:55:02;102122.88;;;3.95;100.00
19676;BME280;39539;52.202;9.876;2023-02-04T01:57:28;102125.03;;;3.90;100.00
19676;BME280;39539;52.202;9.876;2023-02-04T01:59:54;102134.56;;;4.02;100.00
19676;BME280;39539;52.202;9.876;2023-02-04T02:02:40;102138.84;;;4.03;100.00
19676;BME280;39539;52.202;9.876;2023-02-04T02:05:08;102129.94;;;3.95;100.00
19676;BME280;39539;52.202;9.876;2023-02-04T02:07:34;102145.59;;;3.96;100.00
19676;BME280;39539;52.202;9.876;2023-02-04T02:09:59;102153.50;;;3.96;100.00
19676;BME280;39539;52.202;9.876;2023-02-04T02:12:25;102157.91;;;3.96;100.00
19676;BME280;39539;52.202;9.876;2023-02-04T02:14:50;102157.06;;;3.95;100.00
19676;BME280;39539;52.202;9.876;2023-02-04T02:17:15;102158.97;;;3.93;100.00
19676;BME280;39539;52.202;9.876;2023-02-04T02:19:42;102164.25;;;3.93;100.00
19676;BME280;39539;52.202;9.876;2023-02-04T02:24:34;102170.38;;;3.94;100.00
19676;BME280;39539;52.202;9.876;2023-02-04T02:27:05;102172.59;;;3.98;100.00
19676;BME280;39539;52.202;9.876;2023-02-04T02:29:33;102169.50;;;3.93;100.00
19676;BME280;39539;52.202;9.876;2023-02-04T02:31:58;102178.13;;;3.95;100.00
19676;BME280;39539;52.202;9.876;2023-02-04T02:34:28;102189.59;;;3.94;100.00
19676;BME280;39539;52.202;9.876;2023-02-04T02:36:54;102193.91;;;3.95;100.00
19676;BME280;39539;52.202;9.876;2023-02-04T02:39:20;102211.59;;;3.93;100.00
19676;BME280;39539;52.202;9.876;2023-02-04T02:41:46;102217.72;;;3.94;100.00
19676;BME280;39539;52.202;9.876;2023-02-04T02:44:12;102213.53;;;3.91;100.00
19676;BME280;39539;52.202;9.876;2023-02-04T02:46:39;102217.34;;;3.87;100.00
19676;BME280;39539;52.202;9.876;2023-02-04T02:49:05;102232.44;;;3.85;100.00
19676;BME280;39539;52.202;9.876;2023-02-04T02:51:31;102215.22;;;3.81;100.00
19676;BME280;39539;52.202;9.876;2023-02-04T02:53:57;102228.88;;;3.75;100.00
19676;BME280;39539;52.202;9.876;2023-02-04T02:56:22;102235.78;;;3.76;100.00
19676;BME280;39539;52.202;9.876;2023-02-04T02:58:48;102225.31;;;3.65;100.00
19676;BME280;39539;52.202;9.876;2023-02-04T03:01:13;102224.13;;;3.57;100.00
19676;BME280;39539;52.202;9.876;2023-02-04T03:03:47;102236.53;;;3.67;100.00
19676;BME280;39539;52.202;9.876;2023-02-04T03:06:16;102233.81;;;3.57;100.00
19676;BME280;39539;52.202;9.876;2023-02-04T03:08:44;102246.09;;;3.56;100.00
19676;BME280;39539;52.202;9.876;2023-02-04T03:11:10;102255.94;;;3.54;100.00
19676;BME280;39539;52.202;9.876;2023-02-04T03:13:36;102252.00;;;3.49;100.00
19676;BME280;39539;52.202;9.876;2023-02-04T03:16:02;102252.59;;;3.41;100.00
19676;BME280;39539;52.202;9.876;2023-02-04T03:18:29;102266.31;;;3.45;100.00
19676;BME280;39539;52.202;9.876;2023-02-04T03:20:55;102261.53;;;3.38;100.00
19676;BME280;39539;52.202;9.876;2023-02-04T03:23:23;102274.69;;;3.38;100.00
19676;BME280;39539;52.202;9.876;2023-02-04T03:25:48;102279.34;;;3.35;100.00
19676;BME280;39539;52.202;9.876;2023-02-04T03:28:14;102271.94;;;3.29;100.00
19676;BME280;39539;52.202;9.876;2023-02-04T03:30:39;102273.38;;;3.22;100.00
19676;BME280;39539;52.202;9.876;2023-02-04T03:33:04;102291.41;;;3.26;100.00
19676;BME280;39539;52.202;9.876;2023-02-04T03:35:30;102311.72;;;3.35;100.00
19676;BME280;39539;52.202;9.876;2023-02-04T03:37:55;102305.25;;;3.28;100.00
19676;BME280;39539;52.202;9.876;2023-02-04T03:40:21;102319.34;;;3.27;100.00
19676;BME280;39539;52.202;9.876;2023-02-04T03:42:46;102317.31;;;3.20;100.00
19676;BME280;39539;52.202;9.876;2023-02-04T03:45:11;102324.84;;;3.13;100.00
19676;BME280;39539;52.202;9.876;2023-02-04T03:47:37;102323.66;;;3.06;100.00
19676;BME280;39539;52.202;9.876;2023-02-04T03:50:04;102313.78;;;2.85;100.00
19676;BME280;39539;52.202;9.876;2023-02-04T03:52:29;102325.25;;;2.84;100.00
19676;BME280;39539;52.202;9.876;2023-02-04T03:54:55;102327.84;;;2.73;100.00
19676;BME280;39539;52.202;9.876;2023-02-04T03:57:20;102337.00;;;2.67;100.00
19676;BME280;39539;52.202;9.876;2023-02-04T03:59:45;102327.66;;;2.52;100.00
19676;BME280;39539;52.202;9.876;2023-02-04T04:02:11;102337.94;;;2.55;100.00
19676;BME280;39539;52.202;9.876;2023-02-04T04:04:36;102350.53;;;2.50;100.00
19676;BME280;39539;52.202;9.876;2023-02-04T04:07:02;102350.09;;;2.56;100.00
19676;BME280;39539;52.202;9.876;2023-02-04T04:09:27;102352.94;;;2.53;100.00
19676;BME280;39539;52.202;9.876;2023-02-04T04:11:53;102351.38;;;2.51;100.00
19676;BME280;39539;52.202;9.876;2023-02-04T04:14:19;102352.44;;;2.48;100.00
19676;BME280;39539;52.202;9.876;2023-02-04T04:16:44;102359.78;;;2.43;100.00
19676;BME280;39539;52.202;9.876;2023-02-04T04:19:10;102370.28;;;2.43;100.00
19676;BME280;39539;52.202;9.876;2023-02-04T04:21:35;102365.13;;;2.30;100.00
19676;BME280;39539;52.202;9.876;2023-02-04T04:24:00;102369.13;;;2.23;100.00
19676;BME280;39539;52.202;9.876;2023-02-04T04:26:26;102365.38;;;2.14;100.00
19676;BME280;39539;52.202;9.876;2023-02-04T04:28:51;102360.91;;;1.91;100.00
19676;BME280;39539;52.202;9.876;2023-02-04T04:31:16;102373.59;;;1.97;100.00
19676;BME280;39539;52.202;9.876;2023-02-04T04:33:42;102372.56;;;1.87;100.00
19676;BME280;39539;52.202;9.876;2023-02-04T04:36:07;102366.91;;;1.80;100.00
19676;BME280;39539;52.202;9.876;2023-02-04T04:38:33;102383.38;;;1.82;100.00
19676;BME280;39539;52.202;9.876;2023-02-04T04:40:58;102383.47;;;1.80;100.00
19676;BME280;39539;52.202;9.876;2023-02-04T04:43:24;102411.69;;;1.90;100.00
19676;BME280;39539;52.202;9.876;2023-02-04T04:45:49;102418.91;;;1.86;100.00
19676;BME280;39539;52.202;9.876;2023-02-04T04:48:15;102406.25;;;1.80;100.00
19676;BME280;39539;52.202;9.876;2023-02-04T04:50:40;102417.88;;;1.76;100.00
19676;BME280;39539;52.202;9.876;2023-02-04T04:53:06;102419.78;;;1.74;100.00
19676;BME280;39539;52.202;9.876;2023-02-04T04:55:38;102423.88;;;1.65;100.00
19676;BME280;39539;52.202;9.876;2023-02-04T04:58:04;102414.94;;;1.55;100.00
19676;BME280;39539;52.202;9.876;2023-02-04T05:00:30;102422.59;;;1.58;100.00
19676;BME280;39539;52.202;9.876;2023-02-04T05:02:55;102434.31;;;1.52;100.00
19676;BME280;39539;52.202;9.876;2023-02-04T05:05:21;102422.81;;;1.42;100.00
19676;BME280;39539;52.202;9.876;2023-02-04T05:07:46;102445.22;;;1.46;100.00
19676;BME280;39539;52.202;9.876;2023-02-04T05:10:11;102429.59;;;1.19;100.00
19676;BME280;39539;52.202;9.876;2023-02-04T05:12:37;102442.97;;;1.15;100.00
19676;BME280;39539;52.202;9.876;2023-02-04T05:15:03;102447.19;;;1.17;100.00
19676;BME280;39539;52.202;9.876;2023-02-04T05:17:29;102449.25;;;1.12;100.00
19676;BME280;39539;52.202;9.876;2023-02-04T05:19:54;102434.34;;;1.00;100.00
19676;BME280;39539;52.202;9.876;2023-02-04T05:22:19;102455.94;;;1.03;100.00
19676;BME280;39539;52.202;9.876;2023-02-04T05:24:45;102445.41;;;0.90;100.00
19676;BME280;39539;52.202;9.876;2023-02-04T05:27:10;102461.09;;;1.05;100.00
19676;BME280;39539;52.202;9.876;2023-02-04T05:29:35;102466.31;;;1.05;100.00
19676;BME280;39539;52.202;9.876;2023-02-04T05:32:01;102472.81;;;1.12;100.00
19676;BME280;39539;52.202;9.876;2023-02-04T05:34:26;102482.59;;;1.23;100.00
19676;BME280;39539;52.202;9.876;2023-02-04T05:36:51;102473.25;;;1.19;100.00
19676;BME280;39539;52.202;9.876;2023-02-04T05:39:16;102489.31;;;1.27;100.00
19676;BME280;39539;52.202;9.876;2023-02-04T05:41:42;102505.03;;;1.27;100.00
19676;BME280;39539;52.202;9.876;2023-02-04T05:44:07;102509.34;;;1.28;100.00
19676;BME280;39539;52.202;9.876;2023-02-04T05:46:33;102518.66;;;1.32;100.00
19676;BME280;39539;52.202;9.876;2023-02-04T05:48:58;102509.28;;;1.15;100.00
19676;BME280;39539;52.202;9.876;2023-02-04T05:51:23;102525.44;;;1.22;100.00
19676;BME280;39539;52.202;9.876;2023-02-04T05:53:50;102529.47;;;1.13;100.00
19676;BME280;39539;52.202;9.876;2023-02-04T05:56:17;102528.66;;;1.12;100.00
19676;BME280;39539;52.202;9.876;2023-02-04T05:58:43;102537.53;;;1.10;100.00
19676;BME280;39539;52.202;9.876;2023-02-04T06:01:09;102530.28;;;1.01;100.00
19676;BME280;39539;52.202;9.876;2023-02-04T06:03:34;102537.38;;;0.99;100.00
19676;BME280;39539;52.202;9.876;2023-02-04T06:05:59;102540.88;;;0.85;100.00
19676;BME280;39539;52.202;9.876;2023-02-04T06:08:25;102550.50;;;0.84;100.00
19676;BME280;39539;52.202;9.876;2023-02-04T06:10:50;102538.97;;;0.74;100.00
19676;BME280;39539;52.202;9.876;2023-02-04T06:13:15;102556.97;;;0.79;100.00
19676;BME280;39539;52.202;9.876;2023-02-04T06:15:41;102560.94;;;0.57;100.00
19676;BME280;39539;52.202;9.876;2023-02-04T06:18:06;102563.81;;;0.53;100.00
19676;BME280;39539;52.202;9.876;2023-02-04T06:20:32;102564.84;;;0.36;100.00
19676;BME280;39539;52.202;9.876;2023-02-04T06:22:57;102560.47;;;0.22;100.00
19676;BME280;39539;52.202;9.876;2023-02-04T06:25:23;102561.97;;;0.12;100.00
19676;BME280;39539;52.202;9.876;2023-02-04T06:27:49;102565.84;;;0.05;100.00
19676;BME280;39539;52.202;9.876;2023-02-04T06:30:17;102573.44;;;0.09;100.00
19676;BME280;39539;52.202;9.876;2023-02-04T06:32:42;102594.00;;;0.15;100.00
19676;BME280;39539;52.202;9.876;2023-02-04T06:35:08;102600.22;;;0.13;100.00
19676;BME280;39539;52.202;9.876;2023-02-04T06:37:34;102598.75;;;0.09;100.00
19676;BME280;39539;52.202;9.876;2023-02-04T06:40:00;102586.13;;;0.01;100.00
19676;BME280;39539;52.202;9.876;2023-02-04T06:42:25;102605.94;;;0.19;100.00
19676;BME280;39539;52.202;9.876;2023-02-04T06:44:51;102617.53;;;0.30;100.00
19676;BME280;39539;52.202;9.876;2023-02-04T06:47:17;102613.91;;;0.32;100.00
19676;BME280;39539;52.202;9.876;2023-02-04T06:49:43;102606.63;;;0.23;100.00
19676;BME280;39539;52.202;9.876;2023-02-04T06:52:09;102623.97;;;0.24;100.00
19676;BME280;39539;52.202;9.876;2023-02-04T06:54:34;102630.78;;;0.27;100.00
19676;BME280;39539;52.202;9.876;2023-02-04T06:57:00;102632.22;;;0.32;100.00
19676;BME280;39539;52.202;9.876;2023-02-04T06:59:39;102642.69;;;0.47;100.00
19676;BME280;39539;52.202;9.876;2023-02-04T07:02:07;102645.50;;;0.43;100.00
19676;BME280;39539;52.202;9.876;2023-02-04T07:04:33;102633.69;;;0.36;100.00
19676;BME280;39539;52.202;9.876;2023-02-04T07:06:59;102652.22;;;0.48;100.00
19676;BME280;39539;52.202;9.876;2023-02-04T07:09:25;102660.44;;;0.41;100.00
19676;BME280;39539;52.202;9.876;2023-02-04T07:11:50;102658.00;;;0.38;100.00
19676;BME280;39539;52.202;9.876;2023-02-04T07:14:16;102653.00;;;0.19;100.00
19676;BME280;39539;52.202;9.876;2023-02-04T07:16:42;102665.25;;;0.33;100.00
19676;BME280;39539;52.202;9.876;2023-02-04T07:19:08;102669.94;;;0.42;100.00
19676;BME280;39539;52.202;9.876;2023-02-04T07:21:33;102686.34;;;0.60;100.00
19676;BME280;39539;52.202;9.876;2023-02-04T07:23:58;102696.91;;;0.73;100.00
19676;BME280;39539;52.202;9.876;2023-02-04T07:26:24;102690.47;;;0.79;100.00
19676;BME280;39539;52.202;9.876;2023-02-04T07:28:49;102695.22;;;0.86;100.00
19676;BME280;39539;52.202;9.876;2023-02-04T07:31:15;102718.59;;;1.18;100.00
19676;BME280;39539;52.202;9.876;2023-02-04T07:33:40;102714.19;;;1.33;100.00
19676;BME280;39539;52.202;9.876;2023-02-04T07:36:06;102721.75;;;1.52;100.00
19676;BME280;39539;52.202;9.876;2023-02-04T07:38:31;102720.13;;;1.64;100.00
19676;BME280;39539;52.202;9.876;2023-02-04T07:40:57;102734.63;;;1.69;100.00
19676;BME280;39539;52.202;9.876;2023-02-04T07:43:22;102719.63;;;1.71;100.00
19676;BME280;39539;52.202;9.876;2023-02-04T07:45:48;102740.78;;;1.83;100.00
19676;BME280;39539;52.202;9.876;2023-02-04T07:48:13;102751.75;;;2.02;100.00
19676;BME280;39539;52.202;9.876;2023-02-04T07:50:38;102752.44;;;2.18;100.00
19676;BME280;39539;52.202;9.876;2023-02-04T07:53:04;102756.59;;;2.35;100.00
19676;BME280;39539;52.202;9.876;2023-02-04T07:55:29;102741.06;;;2.32;100.00
19676;BME280;39539;52.202;9.876;2023-02-04T07:57:54;102763.44;;;2.38;100.00
19676;BME280;39539;52.202;9.876;2023-02-04T08:00:20;102760.59;;;2.54;100.00
19676;BME280;39539;52.202;9.876;2023-02-04T08:02:45;102761.09;;;2.46;100.00
19676;BME280;39539;52.202;9.876;2023-02-04T08:05:11;102769.84;;;2.46;100.00
19676;BME280;39539;52.202;9.876;2023-02-04T08:07:37;102762.47;;;2.39;100.00
19676;BME280;39539;52.202;9.876;2023-02-04T08:10:04;102753.84;;;2.24;100.00
19676;BME280;39539;52.202;9.876;2023-02-04T08:12:30;102743.28;;;2.11;100.00
19676;BME280;39539;52.202;9.876;2023-02-04T08:14:55;102757.94;;;2.28;100.00
19676;BME280;39539;52.202;9.876;2023-02-04T08:17:21;102770.56;;;2.48;100.00
19676;BME280;39539;52.202;9.876;2023-02-04T08:19:46;102758.09;;;2.52;100.00
19676;BME280;39539;52.202;9.876;2023-02-04T08:22:12;102780.31;;;2.86;100.00
19676;BME280;39539;52.202;9.876;2023-02-04T08:24:37;102785.75;;;2.96;100.00
19676;BME280;39539;52.202;9.876;2023-02-04T08:27:03;102784.63;;;3.00;100.00
19676;BME280;39539;52.202;9.876;2023-02-04T08:29:29;102772.84;;;3.06;100.00
19676;BME280;39539;52.202;9.876;2023-02-04T08:31:55;102777.22;;;3.31;100.00
19676;BME280;39539;52.202;9.876;2023-02-04T08:34:20;102785.28;;;4.38;99.63
19676;BME280;39539;52.202;9.876;2023-02-04T08:36:45;102771.81;;;5.46;91.07
19676;BME280;39539;52.202;9.876;2023-02-04T08:39:11;102778.63;;;6.58;84.52
19676;BME280;39539;52.202;9.876;2023-02-04T08:41:37;102775.91;;;7.51;78.38
19676;BME280;39539;52.202;9.876;2023-02-04T08:44:02;102774.91;;;8.22;72.96
19676;BME280;39539;52.202;9.876;2023-02-04T08:46:27;102758.53;;;8.85;70.18
19676;BME280;39539;52.202;9.876;2023-02-04T08:48:53;102756.25;;;9.09;69.90
19676;BME280;39539;52.202;9.876;2023-02-04T08:51:18;102755.50;;;9.17;68.66
19676;BME280;39539;52.202;9.876;2023-02-04T08:53:44;102743.56;;;9.03;69.91
19676;BME280;39539;52.202;9.876;2023-02-04T08:56:09;102718.19;;;8.91;68.87
19676;BME280;39539;52.202;9.876;2023-02-04T08:58:39;102746.16;;;9.13;69.07
19676;BME280;39539;52.202;9.876;2023-02-04T09:01:05;102741.41;;;9.89;65.37
19676;BME280;39539;52.202;9.876;2023-02-04T09:03:31;102731.31;;;9.48;66.91
19676;BME280;39539;52.202;9.876;2023-02-04T09:05:56;102732.78;;;9.14;66.65
19676;BME280;39539;52.202;9.876;2023-02-04T09:08:22;102723.88;;;8.49;68.92
19676;BME280;39539;52.202;9.876;2023-02-04T09:10:47;102730.81;;;8.60;69.40
19676;BME280;39539;52.202;9.876;2023-02-04T09:13:12;102701.00;;;8.28;69.29
19676;BME280;39539;52.202;9.876;2023-02-04T09:15:38;102713.84;;;8.04;70.95
19676;BME280;39539;52.202;9.876;2023-02-04T09:18:03;102686.13;;;6.58;74.99
19676;BME280;39539;52.202;9.876;2023-02-04T09:20:38;102699.25;;;5.62;79.70
19676;BME280;39539;52.202;9.876;2023-02-04T09:23:03;102715.25;;;6.25;80.35
19676;BME280;39539;52.202;9.876;2023-02-04T09:25:34;102704.34;;;6.82;75.25
19676;BME280;39539;52.202;9.876;2023-02-04T09:27:59;102715.78;;;6.40;75.20
19676;BME280;39539;52.202;9.876;2023-02-04T09:30:24;102709.38;;;5.90;78.56
19676;BME280;39539;52.202;9.876;2023-02-04T09:32:50;102711.97;;;6.12;78.96
19676;BME280;39539;52.202;9.876;2023-02-04T09:35:15;102705.88;;;5.57;80.83
19676;BME280;39539;52.202;9.876;2023-02-04T09:37:41;102715.50;;;4.79;82.51
19676;BME280;39539;52.202;9.876;2023-02-04T09:40:06;102719.81;;;5.14;85.04
19676;BME280;39539;52.202;9.876;2023-02-04T09:42:32;102726.16;;;5.34;86.64
19676;BME280;39539;52.202;9.876;2023-02-04T09:44:57;102741.09;;;5.78;83.05
19676;BME280;39539;52.202;9.876;2023-02-04T09:47:25;102730.09;;;5.51;83.61
19676;BME280;39539;52.202;9.876;2023-02-04T09:49:51;102725.56;;;5.53;84.26
19676;BME280;39539;52.202;9.876;2023-02-04T09:52:17;102729.63;;;5.23;87.94
19676;BME280;39539;52.202;9.876;2023-02-04T09:54:43;102740.81;;;5.27;87.88
19676;BME280;39539;52.202;9.876;2023-02-04T09:57:15;102738.63;;;5.32;85.20
19676;BME280;39539;52.202;9.876;2023-02-04T09:59:42;102738.53;;;5.22;85.07
19676;BME280;39539;52.202;9.876;2023-02-04T10:02:25;102746.28;;;5.46;84.26
19676;BME280;39539;52.202;9.876;2023-02-04T10:04:55;102761.75;;;5.17;85.96
19676;BME280;39539;52.202;9.876;2023-02-04T10:07:22;102752.91;;;5.07;85.81
19676;BME280;39539;52.202;9.876;2023-02-04T10:09:50;102749.31;;;5.08;87.69
19676;BME280;39539;52.202;9.876;2023-02-04T10:12:17;102755.75;;;5.37;85.90
19676;BME280;39539;52.202;9.876;2023-02-04T10:14:43;102762.97;;;5.58;85.30
19676;BME280;39539;52.202;9.876;2023-02-04T10:17:09;102769.59;;;6.07;83.97
19676;BME280;39539;52.202;9.876;2023-02-04T10:19:35;102767.59;;;5.66;83.04
19676;BME280;39539;52.202;9.876;2023-02-04T10:22:04;102767.03;;;5.39;84.78
19676;BME280;39539;52.202;9.876;2023-02-04T10:24:34;102773.13;;;5.17;87.29
19676;BME280;39539;52.202;9.876;2023-02-04T10:27:11;102772.88;;;5.09;88.41
19676;BME280;39539;52.202;9.876;2023-02-04T10:29:37;102776.00;;;5.03;91.11
19676;BME280;39539;52.202;9.876;2023-02-04T10:32:04;102783.31;;;5.11;87.51
19676;BME280;39539;52.202;9.876;2023-02-04T10:34:48;102785.00;;;5.12;88.20
19676;BME280;39539;52.202;9.876;2023-02-04T10:37:22;102787.41;;;5.37;88.88
19676;BME280;39539;52.202;9.876;2023-02-04T10:39:48;102787.41;;;5.26;88.24
19676;BME280;39539;52.202;9.876;2023-02-04T10:42:27;102787.63;;;5.01;87.97
19676;BME280;39539;52.202;9.876;2023-02-04T10:44:53;102787.78;;;4.64;90.32
19676;BME280;39539;52.202;9.876;2023-02-04T10:49:58;102789.06;;;4.93;91.59
19676;BME280;39539;52.202;9.876;2023-02-04T10:52:32;102798.16;;;5.01;89.46
19676;BME280;39539;52.202;9.876;2023-02-04T10:54:58;102802.28;;;5.16;90.37
19676;BME280;39539;52.202;9.876;2023-02-04T10:57:26;102813.06;;;5.47;90.21
19676;BME280;39539;52.202;9.876;2023-02-04T10:59:55;102804.69;;;5.30;87.83
19676;BME280;39539;52.202;9.876;2023-02-04T11:05:20;102796.97;;;4.93;90.39
19676;BME280;39539;52.202;9.876;2023-02-04T11:07:47;102789.03;;;4.82;88.78
19676;BME280;39539;52.202;9.876;2023-02-04T11:10:23;102792.41;;;4.84;89.40
19676;BME280;39539;52.202;9.876;2023-02-04T11:15:46;102787.72;;;4.77;88.97
19676;BME280;39539;52.202;9.876;2023-02-04T11:20:48;102785.78;;;4.67;88.98
19676;BME280;39539;52.202;9.876;2023-02-04T11:26:35;102794.84;;;4.63;88.78
19676;BME280;39539;52.202;9.876;2023-02-04T11:31:28;102795.44;;;4.67;89.54
19676;BME280;39539;52.202;9.876;2023-02-04T11:42:03;102797.13;;;5.37;86.94
19676;BME280;39539;52.202;9.876;2023-02-04T11:44:29;102790.63;;;4.96;88.42
19676;BME280;39539;52.202;9.876;2023-02-04T11:47:06;102803.13;;;5.28;85.52
19676;BME280;39539;52.202;9.876;2023-02-04T11:49:35;102806.84;;;5.48;83.68
19676;BME280;39539;52.202;9.876;2023-02-04T11:52:05;102782.84;;;5.06;86.53
19676;BME280;39539;52.202;9.876;2023-02-04T11:54:33;102791.78;;;4.81;88.42
19676;BME280;39539;52.202;9.876;2023-02-04T11:56:58;102792.56;;;4.59;88.47
19676;BME280;39539;52.202;9.876;2023-02-04T11:59:24;102797.38;;;4.65;88.16
19676;BME280;39539;52.202;9.876;2023-02-04T12:01:49;102812.13;;;4.67;85.84
19676;BME280;39539;52.202;9.876;2023-02-04T12:04:23;102801.38;;;4.82;85.25
19676;BME280;39539;52.202;9.876;2023-02-04T12:06:57;102794.53;;;4.79;85.04
19676;BME280;39539;52.202;9.876;2023-02-04T12:09:25;102803.09;;;4.59;85.74
19676;BME280;39539;52.202;9.876;2023-02-04T12:11:56;102801.72;;;4.77;83.98
19676;BME280;39539;52.202;9.876;2023-02-04T12:14:30;102790.94;;;4.80;84.72
19676;BME280;39539;52.202;9.876;2023-02-04T12:16:55;102783.75;;;4.71;86.06
19676;BME280;39539;52.202;9.876;2023-02-04T12:19:21;102785.22;;;4.98;86.36
19676;BME280;39539;52.202;9.876;2023-02-04T12:21:47;102797.81;;;5.05;86.52
19676;BME280;39539;52.202;9.876;2023-02-04T12:24:12;102800.13;;;5.21;84.18
19676;BME280;39539;52.202;9.876;2023-02-04T12:26:38;102791.50;;;5.19;81.93
19676;BME280;39539;52.202;9.876;2023-02-04T12:29:03;102796.63;;;5.09;82.46
19676;BME280;39539;52.202;9.876;2023-02-04T12:31:30;102795.91;;;4.96;81.73
19676;BME280;39539;52.202;9.876;2023-02-04T12:33:55;102792.75;;;4.91;81.69
19676;BME280;39539;52.202;9.876;2023-02-04T12:36:21;102778.88;;;4.42;83.75
19676;BME280;39539;52.202;9.876;2023-02-04T12:38:46;102795.38;;;4.44;86.03
19676;BME280;39539;52.202;9.876;2023-02-04T12:41:12;102796.94;;;4.47;84.83
19676;BME280;39539;52.202;9.876;2023-02-04T12:43:37;102796.09;;;4.46;85.53
19676;BME280;39539;52.202;9.876;2023-02-04T12:46:03;102792.34;;;4.38;85.42
19676;BME280;39539;52.202;9.876;2023-02-04T12:48:28;102788.88;;;4.37;84.82
19676;BME280;39539;52.202;9.876;2023-02-04T12:50:53;102800.69;;;4.56;84.25
19676;BME280;39539;52.202;9.876;2023-02-04T12:53:19;102796.50;;;4.29;82.96
19676;BME280;39539;52.202;9.876;2023-02-04T12:55:45;102803.97;;;4.11;83.27
19676;BME280;39539;52.202;9.876;2023-02-04T12:58:11;102810.69;;;4.39;81.55
19676;BME280;39539;52.202;9.876;2023-02-04T13:00:36;102789.13;;;4.34;81.94
19676;BME280;39539;52.202;9.876;2023-02-04T13:03:02;102792.50;;;4.36;81.66
19676;BME280;39539;52.202;9.876;2023-02-04T13:05:27;102799.97;;;4.54;81.46
19676;BME280;39539;52.202;9.876;2023-02-04T13:07:53;102813.19;;;4.65;80.88
19676;BME280;39539;52.202;9.876;2023-02-04T13:10:19;102808.19;;;4.73;79.52
19676;BME280;39539;52.202;9.876;2023-02-04T13:12:46;102805.78;;;4.70;79.53
19676;BME280;39539;52.202;9.876;2023-02-04T13:15:11;102794.72;;;4.54;79.70